sensor_id;sensor_type;location;lat;lon;timestamp;P1;durP1;ratioP1;P2;durP2;ratioP2
28629;SDS011;15817;42.130;24.762;2022-08-01T00:00:33;5.43;;;3.70;;
28629;SDS011;15817;42.130;24.762;2022-08-01T00:02:59;8.90;;;4.13;;
28629;SDS011;15817;42.130;24.762;2022-08-01T00:05:25;7.95;;;4.00;;
28629;SDS011;15817;42.130;24.762;2022-08-01T00:07:51;6.72;;;3.80;;
28629;SDS011;15817;42.130;24.762;2022-08-01T00:10:17;6.18;;;3.88;;
28629;SDS011;15817;42.130;24.762;2022-08-01T00:12:44;4.35;;;3.95;;
28629;SDS011;15817;42.130;24.762;2022-08-01T00:15:12;6.53;;;3.85;;
28629;SDS011;15817;42.130;24.762;2022-08-01T00:17:41;4.88;;;4.28;;
28629;SDS011;15817;42.130;24.762;2022-08-01T00:20:08;4.20;;;3.70;;
28629;SDS011;15817;42.130;24.762;2022-08-01T00:22:36;7.97;;;3.72;;
28629;SDS011;15817;42.130;24.762;2022-08-01T00:25:04;5.22;;;3.80;;
28629;SDS011;15817;42.130;24.762;2022-08-01T00:27:31;8.82;;;3.90;;
28629;SDS011;15817;42.130;24.762;2022-08-01T00:29:57;4.13;;;3.83;;
28629;SDS011;15817;42.130;24.762;2022-08-01T00:32:23;6.28;;;3.85;;
28629;SDS011;15817;42.130;24.762;2022-08-01T00:34:49;9.93;;;3.88;;
28629;SDS011;15817;42.130;24.762;2022-08-01T00:37:15;10.73;;;4.18;;
28629;SDS011;15817;42.130;24.762;2022-08-01T00:39:41;6.72;;;4.05;;
28629;SDS011;15817;42.130;24.762;2022-08-01T00:42:08;9.60;;;4.10;;
28629;SDS011;15817;42.130;24.762;2022-08-01T00:44:35;10.63;;;3.55;;
28629;SDS011;15817;42.130;24.762;2022-08-01T00:47:02;6.13;;;3.95;;
28629;SDS011;15817;42.130;24.762;2022-08-01T00:49:28;4.50;;;4.10;;
28629;SDS011;15817;42.130;24.762;2022-08-01T00:51:54;5.25;;;3.60;;
28629;SDS011;15817;42.130;24.762;2022-08-01T00:54:21;5.03;;;4.53;;
28629;SDS011;15817;42.130;24.762;2022-08-01T00:56:49;4.13;;;3.67;;
28629;SDS011;15817;42.130;24.762;2022-08-01T00:59:14;4.80;;;4.00;;
28629;SDS011;15817;42.130;24.762;2022-08-01T01:01:43;4.63;;;3.97;;
28629;SDS011;15817;42.130;24.762;2022-08-01T01:04:09;3.72;;;3.42;;
28629;SDS011;15817;42.130;24.762;2022-08-01T01:09:29;6.28;;;3.63;;
28629;SDS011;15817;42.130;24.762;2022-08-01T01:17:12;19.92;;;4.40;;
28629;SDS011;15817;42.130;24.762;2022-08-01T01:19:45;3.83;;;3.40;;
28629;SDS011;15817;42.130;24.762;2022-08-01T01:22:17;8.38;;;3.28;;
28629;SDS011;15817;42.130;24.762;2022-08-01T01:25:21;8.85;;;4.03;;
28629;SDS011;15817;42.130;24.762;2022-08-01T01:30:43;6.63;;;3.67;;
28629;SDS011;15817;42.130;24.762;2022-08-01T01:33:12;3.67;;;3.30;;
28629;SDS011;15817;42.130;24.762;2022-08-01T01:35:41;5.55;;;3.60;;
28629;SDS011;15817;42.130;24.762;2022-08-01T01:38:17;3.75;;;3.40;;
28629;SDS011;15817;42.130;24.762;2022-08-01T01:40:46;4.93;;;3.67;;
28629;SDS011;15817;42.130;24.762;2022-08-01T01:43:14;6.57;;;3.35;;
28629;SDS011;15817;42.130;24.762;2022-08-01T01:45:41;4.57;;;3.85;;
28629;SDS011;15817;42.130;24.762;2022-08-01T01:48:09;6.00;;;3.47;;
28629;SDS011;15817;42.130;24.762;2022-08-01T01:50:38;3.80;;;3.50;;
28629;SDS011;15817;42.130;24.762;2022-08-01T01:53:06;8.48;;;3.40;;
28629;SDS011;15817;42.130;24.762;2022-08-01T01:55:36;4.63;;;3.85;;
28629;SDS011;15817;42.130;24.762;2022-08-01T01:58:05;5.78;;;3.72;;
28629;SDS011;15817;42.130;24.762;2022-08-01T02:00:32;7.30;;;4.10;;
28629;SDS011;15817;42.130;24.762;2022-08-01T02:03:01;5.38;;;3.70;;
28629;SDS011;15817;42.130;24.762;2022-08-01T02:05:32;4.47;;;3.40;;
28629;SDS011;15817;42.130;24.762;2022-08-01T02:08:01;4.82;;;3.53;;
28629;SDS011;15817;42.130;24.762;2022-08-01T02:10:29;7.88;;;3.42;;
28629;SDS011;15817;42.130;24.762;2022-08-01T02:12:57;9.00;;;3.83;;
28629;SDS011;15817;42.130;24.762;2022-08-01T02:15:27;4.60;;;3.47;;
28629;SDS011;15817;42.130;24.762;2022-08-01T02:17:59;6.65;;;3.75;;
28629;SDS011;15817;42.130;24.762;2022-08-01T02:20:28;11.73;;;3.70;;
28629;SDS011;15817;42.130;24.762;2022-08-01T02:23:06;6.30;;;3.75;;
28629;SDS011;15817;42.130;24.762;2022-08-01T02:25:43;5.65;;;3.50;;
28629;SDS011;15817;42.130;24.762;2022-08-01T02:28:15;7.75;;;3.47;;
28629;SDS011;15817;42.130;24.762;2022-08-01T02:30:48;7.05;;;3.53;;
28629;SDS011;15817;42.130;24.762;2022-08-01T02:33:16;3.25;;;2.95;;
28629;SDS011;15817;42.130;24.762;2022-08-01T02:35:54;5.15;;;3.17;;
28629;SDS011;15817;42.130;24.762;2022-08-01T02:38:24;6.40;;;3.05;;
28629;SDS011;15817;42.130;24.762;2022-08-01T02:40:52;5.75;;;3.47;;
28629;SDS011;15817;42.130;24.762;2022-08-01T02:43:23;6.22;;;2.70;;
28629;SDS011;15817;42.130;24.762;2022-08-01T02:45:52;6.07;;;3.33;;
28629;SDS011;15817;42.130;24.762;2022-08-01T02:48:21;4.47;;;3.15;;
28629;SDS011;15817;42.130;24.762;2022-08-01T02:50:55;12.52;;;3.72;;
28629;SDS011;15817;42.130;24.762;2022-08-01T02:53:23;14.43;;;3.65;;
28629;SDS011;15817;42.130;24.762;2022-08-01T02:55:52;5.75;;;3.70;;
28629;SDS011;15817;42.130;24.762;2022-08-01T02:58:20;7.82;;;3.78;;
28629;SDS011;15817;42.130;24.762;2022-08-01T03:00:49;6.90;;;3.08;;
28629;SDS011;15817;42.130;24.762;2022-08-01T03:03:16;10.73;;;4.10;;
28629;SDS011;15817;42.130;24.762;2022-08-01T03:05:42;13.30;;;3.63;;
28629;SDS011;15817;42.130;24.762;2022-08-01T03:08:10;5.70;;;3.30;;
28629;SDS011;15817;42.130;24.762;2022-08-01T03:10:41;5.43;;;3.50;;
28629;SDS011;15817;42.130;24.762;2022-08-01T03:13:09;6.60;;;3.10;;
28629;SDS011;15817;42.130;24.762;2022-08-01T03:15:39;5.28;;;3.38;;
28629;SDS011;15817;42.130;24.762;2022-08-01T03:18:09;8.43;;;3.03;;
28629;SDS011;15817;42.130;24.762;2022-08-01T03:20:36;12.27;;;2.97;;
28629;SDS011;15817;42.130;24.762;2022-08-01T03:23:10;14.02;;;3.33;;
28629;SDS011;15817;42.130;24.762;2022-08-01T03:25:39;6.45;;;2.70;;
28629;SDS011;15817;42.130;24.762;2022-08-01T03:28:07;5.90;;;3.20;;
28629;SDS011;15817;42.130;24.762;2022-08-01T03:30:34;8.60;;;3.17;;
28629;SDS011;15817;42.130;24.762;2022-08-01T03:33:03;6.25;;;2.95;;
28629;SDS011;15817;42.130;24.762;2022-08-01T03:35:49;9.95;;;3.08;;
28629;SDS011;15817;42.130;24.762;2022-08-01T03:38:21;8.52;;;2.97;;
28629;SDS011;15817;42.130;24.762;2022-08-01T03:40:56;6.15;;;2.97;;
28629;SDS011;15817;42.130;24.762;2022-08-01T03:43:35;12.27;;;2.92;;
28629;SDS011;15817;42.130;24.762;2022-08-01T03:46:11;10.98;;;2.90;;
28629;SDS011;15817;42.130;24.762;2022-08-01T03:48:43;7.78;;;3.05;;
28629;SDS011;15817;42.130;24.762;2022-08-01T03:51:16;5.55;;;3.20;;
28629;SDS011;15817;42.130;24.762;2022-08-01T03:53:44;8.95;;;2.90;;
28629;SDS011;15817;42.130;24.762;2022-08-01T03:56:12;11.98;;;3.35;;
28629;SDS011;15817;42.130;24.762;2022-08-01T03:58:42;7.57;;;3.38;;
28629;SDS011;15817;42.130;24.762;2022-08-01T04:01:11;9.07;;;3.20;;
28629;SDS011;15817;42.130;24.762;2022-08-01T04:03:38;7.70;;;2.95;;
28629;SDS011;15817;42.130;24.762;2022-08-01T04:06:05;13.43;;;3.42;;
28629;SDS011;15817;42.130;24.762;2022-08-01T04:08:34;19.35;;;3.72;;
28629;SDS011;15817;42.130;24.762;2022-08-01T04:11:01;12.90;;;3.08;;
28629;SDS011;15817;42.130;24.762;2022-08-01T04:13:27;9.35;;;2.90;;
28629;SDS011;15817;42.130;24.762;2022-08-01T04:15:53;7.47;;;2.80;;
28629;SDS011;15817;42.130;24.762;2022-08-01T04:18:19;10.05;;;2.85;;
28629;SDS011;15817;42.130;24.762;2022-08-01T04:20:48;8.57;;;3.15;;
28629;SDS011;15817;42.130;24.762;2022-08-01T04:23:18;4.35;;;2.38;;
28629;SDS011;15817;42.130;24.762;2022-08-01T04:25:48;3.53;;;2.72;;
28629;SDS011;15817;42.130;24.762;2022-08-01T04:28:16;6.05;;;2.90;;
28629;SDS011;15817;42.130;24.762;2022-08-01T04:30:47;9.18;;;3.17;;
28629;SDS011;15817;42.130;24.762;2022-08-01T04:33:24;6.65;;;2.70;;
28629;SDS011;15817;42.130;24.762;2022-08-01T04:35:54;4.25;;;2.20;;
28629;SDS011;15817;42.130;24.762;2022-08-01T04:38:25;5.40;;;2.70;;
28629;SDS011;15817;42.130;24.762;2022-08-01T04:40:53;5.63;;;2.40;;
28629;SDS011;15817;42.130;24.762;2022-08-01T04:43:22;2.92;;;2.63;;
28629;SDS011;15817;42.130;24.762;2022-08-01T04:45:57;6.03;;;2.60;;
28629;SDS011;15817;42.130;24.762;2022-08-01T04:48:24;6.72;;;2.58;;
28629;SDS011;15817;42.130;24.762;2022-08-01T04:50:51;3.45;;;2.60;;
28629;SDS011;15817;42.130;24.762;2022-08-01T04:53:17;4.50;;;2.72;;
28629;SDS011;15817;42.130;24.762;2022-08-01T04:55:46;5.35;;;2.85;;
28629;SDS011;15817;42.130;24.762;2022-08-01T04:58:16;6.40;;;2.53;;
28629;SDS011;15817;42.130;24.762;2022-08-01T05:00:41;12.20;;;3.10;;
28629;SDS011;15817;42.130;24.762;2022-08-01T05:03:10;7.60;;;2.58;;
28629;SDS011;15817;42.130;24.762;2022-08-01T05:05:36;6.72;;;2.92;;
28629;SDS011;15817;42.130;24.762;2022-08-01T05:08:02;13.15;;;2.67;;
28629;SDS011;15817;42.130;24.762;2022-08-01T05:10:28;11.15;;;3.53;;
28629;SDS011;15817;42.130;24.762;2022-08-01T05:12:54;10.70;;;3.25;;
28629;SDS011;15817;42.130;24.762;2022-08-01T05:15:20;6.72;;;3.10;;
28629;SDS011;15817;42.130;24.762;2022-08-01T05:17:46;3.05;;;2.70;;
28629;SDS011;15817;42.130;24.762;2022-08-01T05:20:12;8.38;;;3.05;;
28629;SDS011;15817;42.130;24.762;2022-08-01T05:22:38;10.65;;;3.22;;
28629;SDS011;15817;42.130;24.762;2022-08-01T05:25:08;16.20;;;2.75;;
28629;SDS011;15817;42.130;24.762;2022-08-01T05:27:36;10.00;;;3.03;;
28629;SDS011;15817;42.130;24.762;2022-08-01T05:30:08;12.07;;;2.85;;
28629;SDS011;15817;42.130;24.762;2022-08-01T05:32:38;26.98;;;4.43;;
28629;SDS011;15817;42.130;24.762;2022-08-01T05:35:04;15.35;;;3.35;;
28629;SDS011;15817;42.130;24.762;2022-08-01T05:37:31;12.15;;;3.40;;
28629;SDS011;15817;42.130;24.762;2022-08-01T05:39:59;18.52;;;4.03;;
28629;SDS011;15817;42.130;24.762;2022-08-01T05:42:25;72.65;;;9.10;;
28629;SDS011;15817;42.130;24.762;2022-08-01T05:44:51;140.07;;;12.13;;
28629;SDS011;15817;42.130;24.762;2022-08-01T05:47:19;24.63;;;4.07;;
28629;SDS011;15817;42.130;24.762;2022-08-01T05:49:45;12.02;;;3.08;;
28629;SDS011;15817;42.130;24.762;2022-08-01T05:52:11;113.95;;;9.40;;
28629;SDS011;15817;42.130;24.762;2022-08-01T05:54:37;16.75;;;2.90;;
28629;SDS011;15817;42.130;24.762;2022-08-01T05:57:03;17.27;;;3.75;;
28629;SDS011;15817;42.130;24.762;2022-08-01T05:59:32;11.15;;;2.97;;
28629;SDS011;15817;42.130;24.762;2022-08-01T06:01:59;10.52;;;3.40;;
28629;SDS011;15817;42.130;24.762;2022-08-01T06:04:25;9.70;;;2.55;;
28629;SDS011;15817;42.130;24.762;2022-08-01T06:06:50;31.10;;;3.42;;
28629;SDS011;15817;42.130;24.762;2022-08-01T06:09:29;30.10;;;3.38;;
28629;SDS011;15817;42.130;24.762;2022-08-01T06:12:01;27.23;;;3.83;;
28629;SDS011;15817;42.130;24.762;2022-08-01T06:14:27;12.55;;;2.60;;
28629;SDS011;15817;42.130;24.762;2022-08-01T06:16:53;10.02;;;2.40;;
28629;SDS011;15817;42.130;24.762;2022-08-01T06:19:18;12.43;;;2.50;;
28629;SDS011;15817;42.130;24.762;2022-08-01T06:21:44;12.05;;;2.20;;
28629;SDS011;15817;42.130;24.762;2022-08-01T06:24:13;9.00;;;1.98;;
28629;SDS011;15817;42.130;24.762;2022-08-01T06:26:39;10.20;;;2.22;;
28629;SDS011;15817;42.130;24.762;2022-08-01T06:29:12;3.72;;;1.92;;
28629;SDS011;15817;42.130;24.762;2022-08-01T06:31:40;12.35;;;2.15;;
28629;SDS011;15817;42.130;24.762;2022-08-01T06:34:07;10.65;;;2.20;;
28629;SDS011;15817;42.130;24.762;2022-08-01T06:36:33;9.68;;;2.20;;
28629;SDS011;15817;42.130;24.762;2022-08-01T06:38:59;10.30;;;1.95;;
28629;SDS011;15817;42.130;24.762;2022-08-01T06:41:41;7.82;;;2.42;;
28629;SDS011;15817;42.130;24.762;2022-08-01T06:44:07;4.03;;;1.90;;
28629;SDS011;15817;42.130;24.762;2022-08-01T06:46:34;8.65;;;1.85;;
28629;SDS011;15817;42.130;24.762;2022-08-01T06:49:00;7.47;;;1.92;;
28629;SDS011;15817;42.130;24.762;2022-08-01T06:51:26;9.48;;;2.00;;
28629;SDS011;15817;42.130;24.762;2022-08-01T06:53:52;8.10;;;1.75;;
28629;SDS011;15817;42.130;24.762;2022-08-01T06:56:19;10.23;;;2.10;;
28629;SDS011;15817;42.130;24.762;2022-08-01T06:58:48;5.90;;;1.63;;
28629;SDS011;15817;42.130;24.762;2022-08-01T07:01:18;26.63;;;4.30;;
28629;SDS011;15817;42.130;24.762;2022-08-01T07:03:43;11.82;;;2.13;;
28629;SDS011;15817;42.130;24.762;2022-08-01T07:06:12;11.02;;;2.80;;
28629;SDS011;15817;42.130;24.762;2022-08-01T07:08:46;12.00;;;2.00;;
28629;SDS011;15817;42.130;24.762;2022-08-01T07:11:12;4.90;;;1.60;;
28629;SDS011;15817;42.130;24.762;2022-08-01T07:13:38;25.58;;;2.65;;
28629;SDS011;15817;42.130;24.762;2022-08-01T07:16:13;8.75;;;1.98;;
28629;SDS011;15817;42.130;24.762;2022-08-01T07:18:45;16.20;;;2.88;;
28629;SDS011;15817;42.130;24.762;2022-08-01T07:21:11;9.68;;;1.83;;
28629;SDS011;15817;42.130;24.762;2022-08-01T07:23:37;9.25;;;1.92;;
28629;SDS011;15817;42.130;24.762;2022-08-01T07:26:12;12.30;;;2.53;;
28629;SDS011;15817;42.130;24.762;2022-08-01T07:28:38;15.10;;;1.95;;
28629;SDS011;15817;42.130;24.762;2022-08-01T07:31:04;4.53;;;1.58;;
28629;SDS011;15817;42.130;24.762;2022-08-01T07:33:30;9.02;;;1.83;;
28629;SDS011;15817;42.130;24.762;2022-08-01T07:35:56;5.15;;;1.73;;
28629;SDS011;15817;42.130;24.762;2022-08-01T07:38:24;10.98;;;1.90;;
28629;SDS011;15817;42.130;24.762;2022-08-01T07:40:53;7.95;;;1.70;;
28629;SDS011;15817;42.130;24.762;2022-08-01T07:43:20;9.32;;;1.75;;
28629;SDS011;15817;42.130;24.762;2022-08-01T07:45:46;12.52;;;1.90;;
28629;SDS011;15817;42.130;24.762;2022-08-01T07:48:17;6.47;;;2.22;;
28629;SDS011;15817;42.130;24.762;2022-08-01T07:50:51;11.70;;;3.40;;
28629;SDS011;15817;42.130;24.762;2022-08-01T07:54:07;3.70;;;1.80;;
28629;SDS011;15817;42.130;24.762;2022-08-01T07:56:38;4.03;;;1.70;;
28629;SDS011;15817;42.130;24.762;2022-08-01T07:59:08;8.98;;;1.92;;
28629;SDS011;15817;42.130;24.762;2022-08-01T08:01:41;8.43;;;2.38;;
28629;SDS011;15817;42.130;24.762;2022-08-01T08:04:09;19.38;;;2.80;;
28629;SDS011;15817;42.130;24.762;2022-08-01T08:06:35;8.75;;;1.88;;
28629;SDS011;15817;42.130;24.762;2022-08-01T08:09:01;9.52;;;1.80;;
28629;SDS011;15817;42.130;24.762;2022-08-01T08:11:33;6.88;;;1.40;;
28629;SDS011;15817;42.130;24.762;2022-08-01T08:13:59;13.55;;;1.92;;
28629;SDS011;15817;42.130;24.762;2022-08-01T08:16:32;5.80;;;1.67;;
28629;SDS011;15817;42.130;24.762;2022-08-01T08:19:07;16.80;;;2.95;;
28629;SDS011;15817;42.130;24.762;2022-08-01T08:21:33;8.27;;;2.13;;
28629;SDS011;15817;42.130;24.762;2022-08-01T08:24:01;16.08;;;2.42;;
28629;SDS011;15817;42.130;24.762;2022-08-01T08:26:49;18.63;;;2.35;;
28629;SDS011;15817;42.130;24.762;2022-08-01T08:29:19;20.50;;;2.00;;
28629;SDS011;15817;42.130;24.762;2022-08-01T08:31:45;11.98;;;1.65;;
28629;SDS011;15817;42.130;24.762;2022-08-01T08:34:13;8.38;;;1.48;;
28629;SDS011;15817;42.130;24.762;2022-08-01T08:36:40;11.02;;;1.80;;
28629;SDS011;15817;42.130;24.762;2022-08-01T08:39:12;3.33;;;1.55;;
28629;SDS011;15817;42.130;24.762;2022-08-01T08:41:41;5.35;;;1.73;;
28629;SDS011;15817;42.130;24.762;2022-08-01T08:44:09;36.38;;;2.67;;
28629;SDS011;15817;42.130;24.762;2022-08-01T08:46:50;1.75;;;1.40;;
28629;SDS011;15817;42.130;24.762;2022-08-01T08:52:40;5.68;;;1.65;;
28629;SDS011;15817;42.130;24.762;2022-08-01T08:55:29;5.57;;;2.00;;
28629;SDS011;15817;42.130;24.762;2022-08-01T08:57:55;5.43;;;1.65;;
28629;SDS011;15817;42.130;24.762;2022-08-01T09:00:27;2.45;;;1.42;;
28629;SDS011;15817;42.130;24.762;2022-08-01T09:02:53;7.70;;;1.40;;
28629;SDS011;15817;42.130;24.762;2022-08-01T09:05:22;5.07;;;1.35;;
28629;SDS011;15817;42.130;24.762;2022-08-01T09:07:59;6.25;;;1.60;;
28629;SDS011;15817;42.130;24.762;2022-08-01T09:10:27;5.18;;;1.73;;
28629;SDS011;15817;42.130;24.762;2022-08-01T09:13:03;7.63;;;1.73;;
28629;SDS011;15817;42.130;24.762;2022-08-01T09:15:42;9.68;;;2.13;;
28629;SDS011;15817;42.130;24.762;2022-08-01T09:18:29;6.53;;;1.15;;
28629;SDS011;15817;42.130;24.762;2022-08-01T09:23:45;1.58;;;1.20;;
28629;SDS011;15817;42.130;24.762;2022-08-01T09:26:16;1.42;;;1.08;;
28629;SDS011;15817;42.130;24.762;2022-08-01T09:29:05;2.95;;;1.10;;
28629;SDS011;15817;42.130;24.762;2022-08-01T09:31:40;3.00;;;1.23;;
28629;SDS011;15817;42.130;24.762;2022-08-01T09:34:08;2.40;;;1.23;;
28629;SDS011;15817;42.130;24.762;2022-08-01T09:39:32;6.10;;;1.42;;
28629;SDS011;15817;42.130;24.762;2022-08-01T09:42:02;9.05;;;1.40;;
28629;SDS011;15817;42.130;24.762;2022-08-01T09:44:48;12.68;;;1.83;;
28629;SDS011;15817;42.130;24.762;2022-08-01T09:47:18;3.90;;;1.30;;
28629;SDS011;15817;42.130;24.762;2022-08-01T09:50:17;2.53;;;1.50;;
28629;SDS011;15817;42.130;24.762;2022-08-01T09:52:48;5.13;;;1.30;;
28629;SDS011;15817;42.130;24.762;2022-08-01T09:55:21;6.88;;;1.80;;
28629;SDS011;15817;42.130;24.762;2022-08-01T09:57:57;2.33;;;1.45;;
28629;SDS011;15817;42.130;24.762;2022-08-01T10:00:45;3.63;;;1.30;;
28629;SDS011;15817;42.130;24.762;2022-08-01T10:03:30;7.18;;;1.20;;
28629;SDS011;15817;42.130;24.762;2022-08-01T10:06:18;3.00;;;1.25;;
28629;SDS011;15817;42.130;24.762;2022-08-01T10:08:49;4.13;;;1.30;;
28629;SDS011;15817;42.130;24.762;2022-08-01T10:11:20;2.20;;;1.20;;
28629;SDS011;15817;42.130;24.762;2022-08-01T10:14:26;4.18;;;1.10;;
28629;SDS011;15817;42.130;24.762;2022-08-01T10:16:59;4.93;;;1.23;;
28629;SDS011;15817;42.130;24.762;2022-08-01T10:19:27;4.22;;;1.63;;
28629;SDS011;15817;42.130;24.762;2022-08-01T10:22:03;1.50;;;1.08;;
28629;SDS011;15817;42.130;24.762;2022-08-01T10:24:44;3.70;;;0.98;;
28629;SDS011;15817;42.130;24.762;2022-08-01T10:27:16;6.63;;;1.00;;
28629;SDS011;15817;42.130;24.762;2022-08-01T10:29:50;7.18;;;1.20;;
28629;SDS011;15817;42.130;24.762;2022-08-01T10:32:44;2.65;;;1.25;;
28629;SDS011;15817;42.130;24.762;2022-08-01T10:35:19;5.43;;;1.60;;
28629;SDS011;15817;42.130;24.762;2022-08-01T10:37:51;6.43;;;1.25;;
28629;SDS011;15817;42.130;24.762;2022-08-01T10:40:30;1.50;;;1.10;;
28629;SDS011;15817;42.130;24.762;2022-08-01T10:43:28;3.88;;;1.27;;
28629;SDS011;15817;42.130;24.762;2022-08-01T10:46:02;4.28;;;1.50;;
28629;SDS011;15817;42.130;24.762;2022-08-01T10:51:40;4.78;;;1.73;;
28629;SDS011;15817;42.130;24.762;2022-08-01T10:54:13;4.20;;;1.40;;
28629;SDS011;15817;42.130;24.762;2022-08-01T10:57:02;4.15;;;1.98;;
28629;SDS011;15817;42.130;24.762;2022-08-01T10:59:48;2.20;;;1.30;;
28629;SDS011;15817;42.130;24.762;2022-08-01T11:02:25;13.35;;;1.63;;
28629;SDS011;15817;42.130;24.762;2022-08-01T11:05:04;2.55;;;1.45;;
28629;SDS011;15817;42.130;24.762;2022-08-01T11:07:54;6.63;;;1.30;;
28629;SDS011;15817;42.130;24.762;2022-08-01T11:10:41;9.32;;;1.30;;
28629;SDS011;15817;42.130;24.762;2022-08-01T11:16:45;5.38;;;1.40;;
28629;SDS011;15817;42.130;24.762;2022-08-01T11:28:38;5.00;;;1.20;;
28629;SDS011;15817;42.130;24.762;2022-08-01T11:33:49;6.00;;;1.42;;
28629;SDS011;15817;42.130;24.762;2022-08-01T11:36:27;2.10;;;1.30;;
28629;SDS011;15817;42.130;24.762;2022-08-01T11:39:16;1.95;;;1.25;;
28629;SDS011;15817;42.130;24.762;2022-08-01T11:48:21;3.28;;;1.30;;
28629;SDS011;15817;42.130;24.762;2022-08-01T11:50:53;6.07;;;1.67;;
28629;SDS011;15817;42.130;24.762;2022-08-01T11:53:22;3.70;;;1.48;;
28629;SDS011;15817;42.130;24.762;2022-08-01T11:55:57;0.88;;;0.88;;
28629;SDS011;15817;42.130;24.762;2022-08-01T11:58:36;6.20;;;1.50;;
28629;SDS011;15817;42.130;24.762;2022-08-01T12:01:07;4.38;;;1.60;;
28629;SDS011;15817;42.130;24.762;2022-08-01T12:04:11;3.38;;;1.10;;
28629;SDS011;15817;42.130;24.762;2022-08-01T12:07:18;2.10;;;1.20;;
28629;SDS011;15817;42.130;24.762;2022-08-01T12:09:48;6.53;;;1.52;;
28629;SDS011;15817;42.130;24.762;2022-08-01T12:12:36;4.20;;;1.40;;
28629;SDS011;15817;42.130;24.762;2022-08-01T12:15:10;5.97;;;1.38;;
28629;SDS011;15817;42.130;24.762;2022-08-01T12:17:50;6.25;;;1.23;;
28629;SDS011;15817;42.130;24.762;2022-08-01T12:20:36;1.85;;;1.33;;
28629;SDS011;15817;42.130;24.762;2022-08-01T12:23:08;4.10;;;1.05;;
28629;SDS011;15817;42.130;24.762;2022-08-01T12:25:42;3.58;;;1.10;;
28629;SDS011;15817;42.130;24.762;2022-08-01T12:28:13;4.28;;;1.15;;
28629;SDS011;15817;42.130;24.762;2022-08-01T12:30:40;4.15;;;1.20;;
28629;SDS011;15817;42.130;24.762;2022-08-01T12:33:19;2.35;;;1.10;;
28629;SDS011;15817;42.130;24.762;2022-08-01T12:35:49;4.68;;;1.10;;
28629;SDS011;15817;42.130;24.762;2022-08-01T12:38:28;3.47;;;1.30;;
28629;SDS011;15817;42.130;24.762;2022-08-01T12:41:15;3.85;;;1.52;;
28629;SDS011;15817;42.130;24.762;2022-08-01T12:43:56;3.22;;;1.50;;
28629;SDS011;15817;42.130;24.762;2022-08-01T12:46:28;6.13;;;1.33;;
28629;SDS011;15817;42.130;24.762;2022-08-01T12:48:59;3.38;;;1.17;;
28629;SDS011;15817;42.130;24.762;2022-08-01T12:51:34;11.23;;;1.35;;
28629;SDS011;15817;42.130;24.762;2022-08-01T12:54:04;7.25;;;1.50;;
28629;SDS011;15817;42.130;24.762;2022-08-01T12:56:39;6.72;;;1.40;;
28629;SDS011;15817;42.130;24.762;2022-08-01T12:59:21;4.15;;;1.25;;
28629;SDS011;15817;42.130;24.762;2022-08-01T13:01:53;1.52;;;1.20;;
28629;SDS011;15817;42.130;24.762;2022-08-01T13:04:23;3.15;;;1.23;;
28629;SDS011;15817;42.130;24.762;2022-08-01T13:06:54;5.43;;;1.70;;
28629;SDS011;15817;42.130;24.762;2022-08-01T13:09:23;3.60;;;1.20;;
28629;SDS011;15817;42.130;24.762;2022-08-01T13:11:56;2.30;;;1.35;;
28629;SDS011;15817;42.130;24.762;2022-08-01T13:14:36;3.45;;;1.45;;
28629;SDS011;15817;42.130;24.762;2022-08-01T13:17:02;3.63;;;1.40;;
28629;SDS011;15817;42.130;24.762;2022-08-01T13:19:44;4.78;;;1.20;;
28629;SDS011;15817;42.130;24.762;2022-08-01T13:22:31;2.60;;;1.10;;
28629;SDS011;15817;42.130;24.762;2022-08-01T13:25:14;5.10;;;1.40;;
28629;SDS011;15817;42.130;24.762;2022-08-01T13:27:46;1.70;;;1.23;;
28629;SDS011;15817;42.130;24.762;2022-08-01T13:30:28;3.90;;;1.40;;
28629;SDS011;15817;42.130;24.762;2022-08-01T13:33:03;1.50;;;1.13;;
28629;SDS011;15817;42.130;24.762;2022-08-01T13:35:29;4.82;;;1.30;;
28629;SDS011;15817;42.130;24.762;2022-08-01T13:38:01;3.10;;;1.30;;
28629;SDS011;15817;42.130;24.762;2022-08-01T13:40:43;1.15;;;1.10;;
28629;SDS011;15817;42.130;24.762;2022-08-01T13:43:11;2.03;;;1.10;;
28629;SDS011;15817;42.130;24.762;2022-08-01T13:46:01;3.03;;;1.60;;
28629;SDS011;15817;42.130;24.762;2022-08-01T13:48:55;2.78;;;1.20;;
28629;SDS011;15817;42.130;24.762;2022-08-01T13:51:21;3.45;;;1.52;;
28629;SDS011;15817;42.130;24.762;2022-08-01T13:54:51;2.03;;;1.40;;
28629;SDS011;15817;42.130;24.762;2022-08-01T13:57:24;4.80;;;1.35;;
28629;SDS011;15817;42.130;24.762;2022-08-01T13:59:59;1.77;;;1.15;;
28629;SDS011;15817;42.130;24.762;2022-08-01T14:02:37;4.05;;;1.60;;
28629;SDS011;15817;42.130;24.762;2022-08-01T14:05:10;3.45;;;1.38;;
28629;SDS011;15817;42.130;24.762;2022-08-01T14:07:42;2.30;;;1.30;;
28629;SDS011;15817;42.130;24.762;2022-08-01T14:10:18;1.38;;;1.17;;
28629;SDS011;15817;42.130;24.762;2022-08-01T14:12:44;3.33;;;1.20;;
28629;SDS011;15817;42.130;24.762;2022-08-01T14:15:18;2.55;;;1.38;;
28629;SDS011;15817;42.130;24.762;2022-08-01T14:17:47;1.42;;;1.30;;
28629;SDS011;15817;42.130;24.762;2022-08-01T14:20:14;2.53;;;1.20;;
28629;SDS011;15817;42.130;24.762;2022-08-01T14:22:51;3.75;;;1.42;;
28629;SDS011;15817;42.130;24.762;2022-08-01T14:25:18;5.28;;;1.50;;
28629;SDS011;15817;42.130;24.762;2022-08-01T14:30:38;2.00;;;1.60;;
28629;SDS011;15817;42.130;24.762;2022-08-01T14:33:06;2.17;;;1.25;;
28629;SDS011;15817;42.130;24.762;2022-08-01T14:36:08;3.28;;;1.52;;
28629;SDS011;15817;42.130;24.762;2022-08-01T14:38:37;3.20;;;1.55;;
28629;SDS011;15817;42.130;24.762;2022-08-01T14:41:17;2.97;;;1.30;;
28629;SDS011;15817;42.130;24.762;2022-08-01T14:44:06;2.83;;;2.50;;
28629;SDS011;15817;42.130;24.762;2022-08-01T14:46:44;4.47;;;2.50;;
28629;SDS011;15817;42.130;24.762;2022-08-01T14:49:52;3.55;;;1.45;;
28629;SDS011;15817;42.130;24.762;2022-08-01T14:52:28;5.75;;;1.83;;
28629;SDS011;15817;42.130;24.762;2022-08-01T15:31:23;4.80;;;1.67;;
28629;SDS011;15817;42.130;24.762;2022-08-01T15:33:53;2.95;;;1.40;;
28629;SDS011;15817;42.130;24.762;2022-08-01T15:36:22;1.98;;;1.50;;
28629;SDS011;15817;42.130;24.762;2022-08-01T15:38:57;2.97;;;1.52;;
28629;SDS011;15817;42.130;24.762;2022-08-01T15:41:25;2.38;;;1.20;;
28629;SDS011;15817;42.130;24.762;2022-08-01T15:43:51;2.47;;;1.42;;
28629;SDS011;15817;42.130;24.762;2022-08-01T15:49:51;5.35;;;1.40;;
28629;SDS011;15817;42.130;24.762;2022-08-01T15:52:20;3.67;;;1.40;;
28629;SDS011;15817;42.130;24.762;2022-08-01T15:54:51;5.15;;;1.42;;
28629;SDS011;15817;42.130;24.762;2022-08-01T15:57:25;3.17;;;1.40;;
28629;SDS011;15817;42.130;24.762;2022-08-01T16:00:06;1.63;;;1.33;;
28629;SDS011;15817;42.130;24.762;2022-08-01T16:02:44;1.40;;;1.30;;
28629;SDS011;15817;42.130;24.762;2022-08-01T16:05:15;9.98;;;2.35;;
28629;SDS011;15817;42.130;24.762;2022-08-01T16:07:59;2.63;;;1.60;;
28629;SDS011;15817;42.130;24.762;2022-08-01T16:10:30;3.17;;;1.40;;
28629;SDS011;15817;42.130;24.762;2022-08-01T16:13:04;7.60;;;1.60;;
28629;SDS011;15817;42.130;24.762;2022-08-01T16:16:04;2.08;;;1.63;;
28629;SDS011;15817;42.130;24.762;2022-08-01T16:18:59;1.35;;;1.23;;
28629;SDS011;15817;42.130;24.762;2022-08-01T16:22:09;3.10;;;1.38;;
28629;SDS011;15817;42.130;24.762;2022-08-01T16:24:46;8.65;;;1.73;;
28629;SDS011;15817;42.130;24.762;2022-08-01T16:27:15;1.77;;;1.50;;
28629;SDS011;15817;42.130;24.762;2022-08-01T16:29:49;5.93;;;1.60;;